Time;durP1;ratioP1;P1;durP2;ratioP2;P2;SDS_P1;SDS_P2;PMS_P1;PMS_P2;Temp;Humidity;BMP_temperature;BMP_pressure;BME280_temperature;BME280_humidity;BME280_pressure;Samples;Min_cycle;Max_cycle;Signal;HPM_P1;HPM_P2
2023/12/28 00:00:46;;;;;;;0.30;0.30;;;;;;;9.30;100.00;74771.41;6183618;23;20005;-77
2023/12/28 00:03:11;;;;;;;0.30;0.30;;;;;;;9.40;100.00;74783.34;6185114;23;20008;-77
2023/12/28 00:05:37;;;;;;;0.20;0.20;;;;;;;9.13;100.00;74751.13;6186972;23;20005;-77
2023/12/28 00:08:02;;;;;;;0.20;0.20;;;;;;;9.27;100.00;74767.84;6159103;23;20009;-77
2023/12/28 00:10:28;;;;;;;0.20;0.20;;;;;;;8.88;100.00;74725.25;6159412;23;20319;-77
2023/12/28 00:12:54;;;;;;;0.20;0.20;;;;;;;9.15;100.00;74759.03;6185066;23;20025;-77
2023/12/28 00:15:20;;;;;;;0.20;0.20;;;;;;;9.03;100.00;74739.19;6187286;23;20036;-77
2023/12/28 00:17:45;;;;;;;0.28;0.28;;;;;;;9.06;100.00;74743.38;6161036;23;20005;-77
2023/12/28 00:20:11;;;;;;;0.30;0.30;;;;;;;9.04;100.00;74743.13;6188588;23;20009;-77
2023/12/28 00:22:37;;;;;;;0.20;0.20;;;;;;;9.04;100.00;74745.91;6161084;23;20009;-76
2023/12/28 00:25:04;;;;;;;0.30;0.30;;;;;;;9.01;100.00;74737.41;6160969;23;20005;-77
2023/12/28 00:27:29;;;;;;;0.30;0.30;;;;;;;8.98;100.00;74733.81;6187688;23;20112;-77
2023/12/28 00:29:55;;;;;;;0.20;0.20;;;;;;;9.13;100.00;74751.13;6161981;23;20037;-77
2023/12/28 00:32:20;;;;;;;0.20;0.20;;;;;;;9.13;100.00;74754.47;6161155;23;20020;-77
2023/12/28 00:34:48;;;;;;;0.30;0.30;;;;;;;8.97;100.00;74732.03;6161934;23;20001;-77
2023/12/28 00:37:17;;;;;;;0.30;0.30;;;;;;;8.87;100.00;74723.44;6187469;23;20008;-78
2023/12/28 00:39:42;;;;;;;0.30;0.30;;;;;;;9.02;100.00;74741.34;6187544;23;20001;-77
2023/12/28 00:42:08;;;;;;;0.20;0.20;;;;;;;8.85;100.00;74721.66;6161244;23;20067;-77
2023/12/28 00:44:33;;;;;;;0.30;0.30;;;;;;;8.59;100.00;74690.66;6162224;23;20008;-78
2023/12/28 00:46:59;;;;;;;0.30;0.30;;;;;;;8.77;100.00;74709.34;6187880;23;20015;-77
2023/12/28 00:49:24;;;;;;;0.20;0.20;;;;;;;8.83;100.00;74715.91;6189699;23;20011;-78
2023/12/28 00:51:49;;;;;;;0.30;0.30;;;;;;;8.80;100.00;74712.34;6187674;23;20089;-77
2023/12/28 00:54:15;;;;;;;0.30;0.30;;;;;;;8.93;100.00;74728.44;6162834;23;20348;-78
2023/12/28 00:56:40;;;;;;;0.30;0.30;;;;;;;8.73;100.00;74703.97;6190323;23;20005;-78
2023/12/28 00:59:06;;;;;;;0.20;0.20;;;;;;;8.74;100.00;74705.19;6162446;23;20005;-78
2023/12/28 01:01:31;;;;;;;0.30;0.30;;;;;;;8.86;100.00;74720.09;6188856;23;20005;-77
2023/12/28 01:03:57;;;;;;;0.30;0.30;;;;;;;8.79;100.00;74711.75;6162984;23;20009;-77
2023/12/28 01:06:22;;;;;;;0.20;0.20;;;;;;;8.90;100.00;74724.88;6162695;23;20437;-77
2023/12/28 01:08:48;;;;;;;0.30;0.30;;;;;;;8.83;100.00;74713.16;6188428;23;20369;-78
2023/12/28 01:11:13;;;;;;;0.25;0.25;;;;;;;8.90;100.00;74724.88;6188888;23;20087;-77
2023/12/28 01:13:38;;;;;;;0.22;0.22;;;;;;;8.88;100.00;74725.25;6187815;23;20661;-78
2023/12/28 01:16:04;;;;;;;0.30;0.30;;;;;;;8.87;100.00;74721.28;6187481;23;20005;-78
2023/12/28 01:18:30;;;;;;;0.28;0.28;;;;;;;9.03;100.00;74739.19;6161716;23;20135;-77
2023/12/28 01:20:55;;;;;;;0.20;0.20;;;;;;;9.00;100.00;74741.75;6159640;23;20341;-77
2023/12/28 01:23:21;;;;;;;0.30;0.30;;;;;;;9.25;100.00;74768.19;6157649;23;20017;-77
2023/12/28 01:25:46;;;;;;;0.20;0.20;;;;;;;9.15;100.00;74756.84;6183674;23;20008;-77
2023/12/28 01:28:12;;;;;;;0.20;0.20;;;;;;;9.27;100.00;74770.00;6183862;23;20009;-77
2023/12/28 01:30:37;;;;;;;0.30;0.30;;;;;;;9.28;100.00;74768.44;6157948;23;19993;-77
2023/12/28 01:33:03;;;;;;;0.20;0.20;;;;;;;9.03;100.00;74742.53;6157756;23;20020;-77
2023/12/28 01:35:28;;;;;;;0.30;0.30;;;;;;;8.96;100.00;74730.84;6157584;23;20009;-77
2023/12/28 01:37:54;;;;;;;0.25;0.25;;;;;;;9.06;100.00;74745.53;6157272;23;20028;-77
2023/12/28 01:40:20;;;;;;;0.30;0.30;;;;;;;9.01;100.00;74737.41;6183722;23;20584;-78
2023/12/28 01:42:45;;;;;;;0.20;0.20;;;;;;;8.89;100.00;74728.59;6157388;23;20036;-77
2023/12/28 01:45:11;;;;;;;0.30;0.30;;;;;;;9.09;100.00;74751.88;6184110;23;20113;-77
2023/12/28 01:47:37;;;;;;;0.20;0.20;;;;;;;9.12;100.00;74749.94;6157796;23;20009;-77
2023/12/28 01:50:04;;;;;;;0.20;0.20;;;;;;;9.08;100.00;74750.69;6183666;23;20012;-77
2023/12/28 01:52:29;;;;;;;0.30;0.30;;;;;;;9.24;100.00;74764.25;6182180;23;20348;-77
2023/12/28 01:54:55;;;;;;;0.30;0.30;;;;;;;9.21;100.00;74760.66;6183746;23;20005;-77
2023/12/28 01:57:21;;;;;;;0.20;0.20;;;;;;;9.13;100.00;74748.38;6184152;23;20063;-77
2023/12/28 01:59:47;;;;;;;0.30;0.30;;;;;;;8.91;100.00;74726.06;6157026;23;20381;-77
2023/12/28 02:02:16;;;;;;;0.30;0.30;;;;;;;9.16;100.00;74757.47;6183437;23;20043;-77
2023/12/28 02:04:41;;;;;;;0.20;0.20;;;;;;;9.18;100.00;74757.69;6183432;23;20005;-77
2023/12/28 02:07:08;;;;;;;0.20;0.20;;;;;;;9.23;100.00;74768.00;6157196;23;20009;-78
2023/12/28 02:09:33;;;;;;;0.20;0.20;;;;;;;8.92;100.00;74727.25;6156823;23;20422;-78
2023/12/28 02:11:59;;;;;;;0.30;0.30;;;;;;;8.94;100.00;74729.03;6183519;23;20005;-78
2023/12/28 02:14:25;;;;;;;0.30;0.30;;;;;;;8.87;100.00;74726.81;6181589;23;20087;-78
2023/12/28 02:17:08;;;;;;;0.20;0.20;;;;;;;8.83;100.00;74716.50;6181843;23;20005;-78
2023/12/28 02:19:47;;;;;;;0.20;0.20;;;;;;;8.90;100.00;74727.03;6156652;23;20027;-77
2023/12/28 02:22:15;;;;;;;0.30;0.30;;;;;;;8.76;100.00;74708.16;6181436;23;20009;-78
2023/12/28 02:25:02;;;;;;;0.30;0.30;;;;;;;9.00;100.00;74735.59;6183126;23;20076;-77
2023/12/28 02:27:27;;;;;;;0.30;0.30;;;;;;;8.86;100.00;74728.38;6156749;23;20716;-77
2023/12/28 02:29:53;;;;;;;0.30;0.30;;;;;;;9.06;100.00;74742.78;6182976;23;20005;-78
2023/12/28 02:32:27;;;;;;;0.20;0.20;;;;;;;9.04;100.00;74746.50;6156571;23;20013;-78
2023/12/28 02:34:59;;;;;;;0.30;0.30;;;;;;;8.95;100.00;74732.41;6182969;23;20005;-78
2023/12/28 02:37:26;;;;;;;0.30;0.30;;;;;;;8.99;100.00;74739.94;6156912;23;20005;-78
2023/12/28 02:39:53;;;;;;;0.30;0.30;;;;;;;9.00;100.00;74743.88;6180650;23;20005;-78
2023/12/28 02:42:19;;;;;;;0.30;0.30;;;;;;;8.64;100.00;74693.84;6157363;23;20507;-78
2023/12/28 02:44:44;;;;;;;0.20;0.20;;;;;;;8.78;100.00;74709.94;6182029;23;20005;-78
2023/12/28 02:47:10;;;;;;;0.30;0.30;;;;;;;8.52;100.00;74679.53;6157194;23;20084;-78
2023/12/28 02:49:35;;;;;;;0.30;0.30;;;;;;;8.34;100.00;74661.97;6183912;23;20005;-78
2023/12/28 02:52:00;;;;;;;0.30;0.30;;;;;;;8.44;100.00;74670.59;6183499;23;20429;-78
2023/12/28 02:54:26;;;;;;;0.30;0.30;;;;;;;8.43;100.00;74672.16;6156906;23;20005;-78
2023/12/28 02:56:51;;;;;;;0.20;0.20;;;;;;;8.56;100.00;74687.06;6183045;23;20499;-77
2023/12/28 02:59:17;;;;;;;0.30;0.30;;;;;;;8.47;100.00;74679.69;6183302;23;20000;-77
2023/12/28 03:01:42;;;;;;;0.30;0.30;;;;;;;8.45;100.00;74671.19;6183485;23;20055;-78
2023/12/28 03:04:09;;;;;;;0.30;0.30;;;;;;;8.52;100.00;74682.28;6184053;23;20020;-77
2023/12/28 03:06:35;;;;;;;0.20;0.20;;;;;;;8.65;100.00;74695.03;6184001;23;20089;-77
2023/12/28 03:09:01;;;;;;;0.30;0.30;;;;;;;8.83;100.00;74719.28;6184033;23;20498;-77
2023/12/28 03:11:26;;;;;;;0.30;0.30;;;;;;;8.73;100.00;74704.56;6183715;23;20029;-77
2023/12/28 03:13:52;;;;;;;0.20;0.20;;;;;;;8.79;100.00;74711.75;6183893;23;20017;-77
2023/12/28 03:16:17;;;;;;;0.20;0.20;;;;;;;8.74;100.00;74708.53;6184992;23;20028;-77
2023/12/28 03:18:43;;;;;;;0.30;0.30;;;;;;;8.66;100.00;74701.75;6184402;23;20032;-77
2023/12/28 03:21:08;;;;;;;0.30;0.30;;;;;;;8.65;100.00;74695.63;6186381;23;20032;-77
2023/12/28 03:23:33;;;;;;;0.20;0.20;;;;;;;8.54;100.00;74687.44;6160168;23;20044;-77
2023/12/28 03:26:00;;;;;;;0.30;0.30;;;;;;;8.67;100.00;74702.94;6159651;23;20020;-77
2023/12/28 03:28:26;;;;;;;0.30;0.30;;;;;;;8.59;100.00;74687.88;6186432;23;20421;-77
2023/12/28 03:30:51;;;;;;;0.20;0.20;;;;;;;8.61;100.00;74693.03;6159844;23;20005;-76
2023/12/28 03:33:17;;;;;;;0.20;0.20;;;;;;;8.64;100.00;74693.84;6186439;23;20014;-76
2023/12/28 03:35:42;;;;;;;0.20;0.20;;;;;;;8.52;100.00;74685.03;6184633;23;20005;-77
2023/12/28 03:38:07;;;;;;;0.25;0.25;;;;;;;8.78;100.00;74713.31;6184969;23;20473;-77
2023/12/28 03:40:33;;;;;;;0.20;0.20;;;;;;;8.79;100.00;74711.75;6186197;23;20001;-76
2023/12/28 03:42:58;;;;;;;0.20;0.20;;;;;;;9.06;100.00;74748.31;6185592;23;20071;-77
2023/12/28 03:45:24;;;;;;;0.30;0.30;;;;;;;8.76;100.00;74710.91;6160721;23;20005;-77
2023/12/28 03:47:51;;;;;;;0.25;0.25;;;;;;;9.03;100.00;74744.72;6157292;23;20028;-77
2023/12/28 03:50:16;;;;;;;0.20;0.20;;;;;;;8.77;100.00;74709.34;6183075;23;20005;-77
2023/12/28 03:52:44;;;;;;;0.20;0.20;;;;;;;8.66;100.00;74696.22;6182613;23;20337;-77
2023/12/28 03:55:10;;;;;;;0.25;0.25;;;;;;;8.65;100.00;74695.63;6159099;23;20068;-77
2023/12/28 03:57:35;;;;;;;0.20;0.20;;;;;;;8.51;100.00;74681.09;6184576;23;20418;-77
2023/12/28 04:00:01;;;;;;;0.20;0.20;;;;;;;8.75;100.00;74706.97;6182591;23;20005;-77
2023/12/28 04:02:31;;;;;;;0.30;0.30;;;;;;;8.63;100.00;74698.19;6184838;23;20088;-77
2023/12/28 04:04:58;;;;;;;0.20;0.20;;;;;;;8.71;100.00;74701.59;6185337;23;20011;-77
2023/12/28 04:07:24;;;;;;;0.30;0.30;;;;;;;8.39;100.00;74667.38;6186345;23;19997;-77
2023/12/28 04:09:49;;;;;;;0.20;0.20;;;;;;;8.53;100.00;74677.97;6185494;23;19997;-77
2023/12/28 04:12:15;;;;;;;0.20;0.20;;;;;;;8.24;100.00;74652.81;6184015;23;20009;-77
2023/12/28 04:14:40;;;;;;;0.20;0.20;;;;;;;8.63;100.00;74692.66;6157173;23;20540;-77
2023/12/28 04:17:06;;;;;;;0.30;0.30;;;;;;;8.40;100.00;74671.31;6182449;23;20080;-77
2023/12/28 04:19:31;;;;;;;0.30;0.30;;;;;;;8.43;100.00;74674.91;6182138;23;20001;-77
2023/12/28 04:21:57;;;;;;;0.20;0.20;;;;;;;8.38;100.00;74669.53;6155801;23;20005;-77
2023/12/28 04:24:22;;;;;;;0.20;0.20;;;;;;;8.52;100.00;74685.03;6184054;23;20001;-77
2023/12/28 04:26:47;;;;;;;0.20;0.20;;;;;;;8.29;100.00;74656.03;6182724;23;20012;-78
2023/12/28 04:29:13;;;;;;;0.20;0.20;;;;;;;8.43;100.00;74672.16;6183722;23;20577;-77
2023/12/28 04:31:42;;;;;;;0.20;0.20;;;;;;;8.29;100.00;74652.66;6183673;23;20012;-77
2023/12/28 04:34:07;;;;;;;0.28;0.28;;;;;;;8.34;100.00;74664.16;6184190;23;20079;-77
2023/12/28 04:36:40;;;;;;;0.20;0.20;;;;;;;8.49;100.00;74675.97;6184193;23;20436;-77
2023/12/28 04:39:06;;;;;;;0.30;0.30;;;;;;;8.52;100.00;74682.91;6183966;23;20001;-77
2023/12/28 04:41:31;;;;;;;0.20;0.20;;;;;;;8.35;100.00;74660.41;6157710;23;20005;-77
2023/12/28 04:43:56;;;;;;;0.30;0.30;;;;;;;8.46;100.00;74681.22;6156861;23;20342;-77
2023/12/28 04:46:22;;;;;;;0.20;0.20;;;;;;;8.62;100.00;74691.47;6157660;23;20009;-77
2023/12/28 04:48:47;;;;;;;0.20;0.20;;;;;;;8.59;100.00;74685.13;6183702;23;20075;-77
2023/12/28 04:51:13;;;;;;;0.25;0.25;;;;;;;8.52;100.00;74676.78;6157549;23;20009;-76
2023/12/28 04:53:39;;;;;;;0.30;0.30;;;;;;;8.54;100.00;74682.53;6157343;23;20075;-77
2023/12/28 04:56:07;;;;;;;0.30;0.30;;;;;;;8.53;100.00;74686.84;6157520;23;20008;-77
2023/12/28 04:58:35;;;;;;;0.20;0.20;;;;;;;8.52;100.00;74682.28;6183233;23;20005;-77
2023/12/28 05:01:02;;;;;;;0.22;0.22;;;;;;;8.53;100.00;74686.84;6157432;23;20313;-77
2023/12/28 05:03:28;;;;;;;0.20;0.20;;;;;;;8.12;100.00;74630.25;6157311;23;20001;-77
2023/12/28 05:05:53;;;;;;;0.30;0.30;;;;;;;8.40;100.00;74665.81;6157240;23;20055;-77
2023/12/28 05:08:19;;;;;;;0.30;0.30;;;;;;;8.51;100.00;74678.34;6183858;23;20337;-77
2023/12/28 05:10:44;;;;;;;0.20;0.20;;;;;;;8.51;100.00;74681.09;6182135;23;20047;-77
2023/12/28 05:13:09;;;;;;;0.30;0.30;;;;;;;8.49;100.00;74675.97;6183900;23;20016;-77
2023/12/28 05:15:35;;;;;;;0.25;0.25;;;;;;;8.43;100.00;74671.56;6157373;23;20009;-77
2023/12/28 05:18:00;;;;;;;0.30;0.30;;;;;;;8.52;100.00;74679.53;6157027;23;20012;-77
2023/12/28 05:20:26;;;;;;;0.20;0.20;;;;;;;8.58;100.00;74692.81;6183955;23;20080;-76
2023/12/28 05:22:51;;;;;;;0.20;0.20;;;;;;;8.51;100.00;74681.69;6183979;23;19997;-76
2023/12/28 05:25:19;;;;;;;0.30;0.30;;;;;;;8.34;100.00;74659.22;6183574;23;20519;-77
2023/12/28 05:27:45;;;;;;;0.30;0.30;;;;;;;8.35;100.00;74660.41;6157380;23;20005;-76
2023/12/28 05:30:10;;;;;;;0.20;0.20;;;;;;;8.39;100.00;74665.22;6157510;23;19997;-77
2023/12/28 05:32:36;;;;;;;0.20;0.20;;;;;;;8.50;100.00;74677.16;6183406;23;20033;-77
2023/12/28 05:35:03;;;;;;;0.30;0.30;;;;;;;8.29;100.00;74658.78;6183169;23;20009;-77
2023/12/28 05:37:28;;;;;;;0.20;0.20;;;;;;;8.40;100.00;74666.41;6157823;23;20008;-77
2023/12/28 05:39:54;;;;;;;0.22;0.22;;;;;;;8.34;100.00;74659.22;6183175;23;20040;-77
2023/12/28 05:42:19;;;;;;;0.30;0.30;;;;;;;8.50;100.00;74680.50;6183845;23;20441;-77
2023/12/28 05:44:44;;;;;;;0.20;0.20;;;;;;;8.25;100.00;74651.25;6183596;23;20001;-77
2023/12/28 05:47:10;;;;;;;0.20;0.20;;;;;;;8.22;100.00;74650.44;6183844;23;20001;-77
2023/12/28 05:49:37;;;;;;;0.20;0.20;;;;;;;8.48;100.00;74680.28;6156907;23;20013;-77
2023/12/28 05:52:03;;;;;;;0.20;0.20;;;;;;;8.29;100.00;74658.19;6183468;23;20005;-78
2023/12/28 05:54:28;;;;;;;0.20;0.20;;;;;;;8.37;100.00;74662.84;6183696;23;20079;-77
2023/12/28 05:56:54;;;;;;;0.30;0.30;;;;;;;8.47;100.00;74676.31;6183795;23;20125;-77
2023/12/28 05:59:21;;;;;;;0.30;0.30;;;;;;;8.62;100.00;74692.06;6183742;23;20380;-77
2023/12/28 06:01:47;;;;;;;0.30;0.30;;;;;;;8.70;100.00;74706.53;6183689;23;20032;-77
2023/12/28 06:04:12;;;;;;;0.30;0.30;;;;;;;8.48;100.00;74680.28;6183778;23;20082;-77
2023/12/28 06:06:38;;;;;;;0.30;0.30;;;;;;;8.53;100.00;74680.75;6156708;23;20433;-78
2023/12/28 06:09:03;;;;;;;0.30;0.30;;;;;;;8.64;100.00;74697.22;6156735;23;20139;-77
2023/12/28 06:11:30;;;;;;;0.20;0.20;;;;;;;8.71;100.00;74704.97;6157120;23;20008;-77
2023/12/28 06:13:55;;;;;;;0.30;0.30;;;;;;;8.85;100.00;74718.91;6183329;23;20016;-77
2023/12/28 06:16:20;;;;;;;0.30;0.30;;;;;;;8.79;100.00;74711.13;6183368;23;20001;-77
2023/12/28 06:18:46;;;;;;;0.30;0.30;;;;;;;8.81;100.00;74719.66;6183212;23;20055;-77
2023/12/28 06:21:11;;;;;;;0.30;0.30;;;;;;;8.85;100.00;74721.66;6182424;23;20001;-78
2023/12/28 06:23:37;;;;;;;0.20;0.20;;;;;;;8.92;100.00;74732.78;6156157;23;20578;-77
2023/12/28 06:26:06;;;;;;;0.30;0.30;;;;;;;9.06;100.00;74742.78;6185837;23;20008;-77
2023/12/28 06:28:32;;;;;;;0.30;0.30;;;;;;;9.24;100.00;74769.78;6188614;23;20135;-79
2023/12/28 06:31:00;;;;;;;0.20;0.20;;;;;;;8.89;100.00;74723.69;6158831;23;20009;-78
2023/12/28 06:33:26;;;;;;;0.30;0.30;;;;;;;9.04;100.00;74743.13;6183541;23;20013;-78
2023/12/28 06:35:53;;;;;;;0.20;0.20;;;;;;;9.00;100.00;74735.59;6182149;23;20015;-78
2023/12/28 06:38:18;;;;;;;0.30;0.30;;;;;;;9.09;100.00;74746.34;6158133;23;20008;-78
2023/12/28 06:40:43;;;;;;;0.20;0.20;;;;;;;9.36;100.00;74781.34;6183594;23;20013;-78
2023/12/28 06:43:09;;;;;;;0.30;0.30;;;;;;;9.78;100.00;74827.53;6183092;23;20055;-78
2023/12/28 06:45:34;;;;;;;0.20;0.20;;;;;;;9.86;100.00;74842.00;6160596;23;20017;-78
2023/12/28 06:48:00;;;;;;;0.20;0.20;;;;;;;10.23;100.00;74885.63;6187343;23;20434;-78
2023/12/28 06:50:25;;;;;;;0.30;0.30;;;;;;;10.05;100.00;74859.16;6188826;23;20011;-78
2023/12/28 06:52:50;;;;;;;0.30;0.30;;;;;;;10.03;100.00;74861.72;6186814;23;20084;-77
2023/12/28 06:55:16;;;;;;;0.22;0.22;;;;;;;9.94;100.00;74846.63;6183496;23;20076;-78
2023/12/28 06:57:41;;;;;;;0.30;0.30;;;;;;;9.90;100.00;74844.59;6160011;23;20051;-78
2023/12/28 07:00:07;;;;;;;0.30;0.30;;;;;;;9.83;100.00;74835.66;6160420;23;20080;-78
2023/12/28 07:02:33;;;;;;;0.20;0.20;;;;;;;9.74;100.00;74822.75;6168530;23;20016;-77
2023/12/28 07:04:58;;;;;;;0.30;0.30;;;;;;;9.61;100.00;74807.81;6199628;23;20001;-77
2023/12/28 07:07:25;;;;;;;0.20;0.20;;;;;;;9.75;100.00;74826.72;6196690;23;20071;-78
2023/12/28 07:09:50;;;;;;;0.20;0.20;;;;;;;9.69;100.00;74816.78;6198711;23;20063;-78
2023/12/28 07:12:21;;;;;;;0.30;0.30;;;;;;;10.01;100.00;74859.31;6201342;23;20009;-78
2023/12/28 07:14:47;;;;;;;0.20;0.20;;;;;;;9.78;100.00;74830.28;6163362;23;20635;-77
2023/12/28 07:17:17;;;;;;;0.30;0.30;;;;;;;9.66;100.00;74813.19;6195885;23;20032;-78
2023/12/28 07:19:42;;;;;;;0.20;0.20;;;;;;;10.04;100.00;74852.47;6195163;23;20008;-79
2023/12/28 07:22:08;;;;;;;0.20;0.20;;;;;;;10.08;100.00;74864.94;6192525;23;20006;-78
2023/12/28 07:24:33;;;;;;;0.20;0.20;;;;;;;10.03;100.00;74858.97;6193027;23;20005;-78
2023/12/28 07:26:58;;;;;;;0.20;0.20;;;;;;;9.76;100.00;74825.16;6191502;23;20037;-78
2023/12/28 07:29:24;;;;;;;0.20;0.20;;;;;;;9.93;100.00;74844.84;6191903;23;20032;-78
2023/12/28 07:31:49;;;;;;;0.20;0.20;;;;;;;10.44;100.00;74907.97;6191678;23;20008;-78
2023/12/28 07:34:15;;;;;;;0.20;0.20;;;;;;;10.53;100.00;74914.75;6194036;23;20744;-77
2023/12/28 07:36:43;;;;;;;0.25;0.25;;;;;;;10.47;100.00;74905.41;6191280;23;20084;-77
2023/12/28 07:39:08;;;;;;;0.30;0.30;;;;;;;10.55;100.00;74922.66;6188381;23;20001;-77
2023/12/28 07:41:34;;;;;;;0.20;0.20;;;;;;;10.61;100.00;74929.84;6188752;23;20032;-77
2023/12/28 07:43:59;;;;;;;0.20;0.20;;;;;;;10.58;100.00;74920.72;6188459;23;20016;-77
2023/12/28 07:46:25;;;;;;;0.20;0.20;;;;;;;10.68;100.00;74933.25;6187792;23;20005;-78
2023/12/28 07:48:50;;;;;;;0.30;0.30;;;;;;;10.87;100.00;74949.25;6163152;23;20053;-78
2023/12/28 07:51:15;;;;;;;0.30;0.30;;;;;;;11.00;100.00;74973.06;6185727;23;20008;-76
2023/12/28 07:53:41;;;;;;;0.20;0.20;;;;;;;11.72;100.00;75060.13;6186633;23;20005;-76
2023/12/28 07:56:06;;;;;;;0.20;0.20;;;;;;;11.89;100.00;75077.09;6187125;23;20033;-77
2023/12/28 07:58:32;;;;;;;0.20;0.20;;;;;;;11.78;100.00;75059.00;6192165;23;20035;-79
2023/12/28 08:00:57;;;;;;;0.30;0.30;;;;;;;11.69;100.00;75045.44;6190892;23;20381;-78
2023/12/28 08:03:22;;;;;;;0.25;0.25;;;;;;;11.91;100.00;75071.78;6190062;23;20016;-78
2023/12/28 08:05:48;;;;;;;0.20;0.20;;;;;;;12.00;100.00;75085.31;6162643;23;20451;-79
2023/12/28 08:08:13;;;;;;;0.20;0.20;;;;;;;11.84;100.00;75068.34;6166397;23;20004;-79
2023/12/28 08:10:38;;;;;;;0.20;0.20;;;;;;;12.05;100.00;75091.28;6190049;23;20239;-79
2023/12/28 08:13:04;;;;;;;0.20;0.20;;;;;;;11.78;100.00;75062.34;6193681;23;20012;-79
2023/12/28 08:15:29;;;;;;;0.30;0.30;;;;;;;11.68;100.00;75049.81;6169895;23;20044;-79
2023/12/28 08:17:55;;;;;;;0.20;0.20;;;;;;;11.69;100.00;75053.75;6191810;23;20003;-79
2023/12/28 08:20:20;;;;;;;0.20;0.20;;;;;;;11.57;100.00;75036.66;6164917;23;20016;-78
2023/12/28 08:22:46;;;;;;;0.20;0.20;;;;;;;11.73;100.00;75055.78;6190984;23;20015;-79
2023/12/28 08:25:11;;;;;;;0.20;0.20;;;;;;;12.41;100.00;75135.31;6162690;23;20051;-76
2023/12/28 08:27:37;;;;;;;0.20;0.20;;;;;;;12.25;100.00;75114.00;6191427;23;20013;-79
2023/12/28 08:30:04;;;;;;;0.20;0.20;;;;;;;12.07;100.00;75090.91;6168873;23;20012;-80
2023/12/28 08:32:31;;;;;;;0.20;0.20;;;;;;;12.40;100.00;75134.13;6193777;23;20019;-79
2023/12/28 08:34:59;;;;;;;0.20;0.20;;;;;;;12.16;100.00;75106.63;6168661;23;20010;-80
2023/12/28 08:37:24;;;;;;;0.20;0.20;;;;;;;12.23;100.00;75115.00;6197355;23;20028;-80
2023/12/28 08:39:50;;;;;;;0.20;0.20;;;;;;;12.27;100.00;75119.78;6198416;23;20005;-79
2023/12/28 08:42:17;;;;;;;0.20;0.20;;;;;;;12.11;100.00;75100.03;6169030;23;20001;-80
2023/12/28 08:44:45;;;;;;;0.25;0.25;;;;;;;12.38;100.00;75132.34;6191856;23;20007;-80
2023/12/28 08:47:12;;;;;;;0.28;0.28;;;;;;;12.54;100.00;75150.88;6169289;23;20013;-80
2023/12/28 08:49:37;;;;;;;0.30;0.30;;;;;;;12.70;100.00;75169.44;6191747;23;20074;-80
2023/12/28 08:52:03;;;;;;;0.20;0.20;;;;;;;12.71;100.00;75170.63;6192181;23;20441;-80
2023/12/28 08:54:30;;;;;;;0.20;0.20;;;;;;;12.22;100.00;75111.03;6166346;23;20012;-80
2023/12/28 08:56:57;;;;;;;0.20;0.20;;;;;;;12.50;99.97;75140.53;6166229;23;20028;-80
2023/12/28 08:59:23;;;;;;;0.20;0.20;;;;;;;12.63;99.53;75161.66;6193126;23;20051;-80
2023/12/28 09:01:53;;;;;;;0.20;0.20;;;;;;;12.78;100.00;75179.59;6196775;23;20005;-81
2023/12/28 09:04:26;;;;;;;0.20;0.20;;;;;;;12.84;100.00;75184.00;6204258;23;20009;-80
2023/12/28 09:06:51;;;;;;;0.20;0.20;;;;;;;12.73;99.81;75170.84;6181914;23;20031;-80
2023/12/28 09:09:22;;;;;;;0.20;0.20;;;;;;;13.00;97.41;75204.72;6207431;23;20001;-81
2023/12/28 09:11:49;;;;;;;0.20;0.20;;;;;;;12.83;97.72;75182.19;6203518;23;20001;-80
2023/12/28 09:14:35;;;;;;;0.20;0.20;;;;;;;12.84;97.06;75181.22;6200138;23;20357;-81
2023/12/28 09:17:02;;;;;;;0.20;0.20;;;;;;;13.14;96.84;75221.47;6192927;23;20384;-80
2023/12/28 09:19:28;;;;;;;0.20;0.20;;;;;;;13.24;96.53;75232.88;6189946;23;20005;-81
2023/12/28 09:21:57;;;;;;;0.20;0.20;;;;;;;13.19;95.29;75224.09;6188639;23;20016;-80
2023/12/28 09:24:31;;;;;;;0.20;0.20;;;;;;;13.21;95.12;75224.34;6187866;23;20366;-81
2023/12/28 09:26:57;;;;;;;0.20;0.20;;;;;;;13.33;95.57;75241.47;6187840;23;20018;-80
2023/12/28 09:29:24;;;;;;;0.20;0.20;;;;;;;13.36;89.23;75247.22;6190655;23;20005;-81
2023/12/28 09:32:06;;;;;;;0.20;0.20;;;;;;;12.98;89.44;75199.56;6202965;23;20016;-82
2023/12/28 09:34:33;;;;;;;0.20;0.20;;;;;;;13.20;89.03;75225.28;6198889;23;19985;-80
2023/12/28 09:36:59;;;;;;;0.20;0.20;;;;;;;13.15;90.16;75222.66;6205843;23;20061;-81
2023/12/28 09:39:26;;;;;;;0.20;0.20;;;;;;;13.23;92.42;75231.69;6205369;23;20481;-81
2023/12/28 09:42:09;;;;;;;0.20;0.20;;;;;;;13.23;93.50;75226.72;6197240;23;20441;-80
2023/12/28 09:44:40;;;;;;;0.20;0.20;;;;;;;13.42;92.77;75251.63;6188280;23;20004;-81
2023/12/28 09:47:06;;;;;;;0.20;0.20;;;;;;;13.41;93.50;75247.06;6185199;23;20001;-81
2023/12/28 09:49:36;;;;;;;0.30;0.30;;;;;;;13.56;93.55;75265.03;6188159;23;20088;-81
2023/12/28 09:52:05;;;;;;;0.20;0.20;;;;;;;13.56;93.90;75267.81;6159932;23;20059;-82
2023/12/28 09:54:31;;;;;;;0.20;0.20;;;;;;;13.39;93.48;75245.28;6160492;23;20009;-83
2023/12/28 09:56:59;;;;;;;0.20;0.20;;;;;;;13.44;93.63;75254.03;6183495;23;20005;-83
2023/12/28 09:59:38;;;;;;;0.20;0.20;;;;;;;13.60;93.46;75270.41;6185429;23;20004;-83
2023/12/28 10:02:05;;;;;;;0.20;0.20;;;;;;;13.57;93.16;75269.59;6157629;23;20009;-83
2023/12/28 10:04:31;;;;;;;0.20;0.20;;;;;;;13.61;92.59;75279.34;6158857;23;20009;-82
2023/12/28 10:06:57;;;;;;;0.20;0.20;;;;;;;13.38;91.00;75249.03;6185858;23;20001;-82
2023/12/28 10:09:26;;;;;;;0.20;0.20;;;;;;;13.39;89.51;75250.81;6182169;23;20100;-80
2023/12/28 10:11:53;;;;;;;0.20;0.20;;;;;;;13.49;90.83;75260.03;6158311;23;20013;-81
2023/12/28 10:14:20;;;;;;;0.20;0.20;;;;;;;13.46;91.33;75253.06;6184159;23;20012;-81
2023/12/28 10:16:45;;;;;;;0.20;0.20;;;;;;;13.20;91.36;75230.84;6183591;23;20009;-81
2023/12/28 10:19:12;;;;;;;0.20;0.20;;;;;;;13.22;92.05;75231.09;6183241;23;20028;-82
2023/12/28 10:21:41;;;;;;;0.20;0.20;;;;;;;13.42;90.96;75251.63;6183432;23;20168;-81
2023/12/28 10:24:06;;;;;;;0.20;0.20;;;;;;;13.23;92.92;75231.69;6183497;23;20001;-81
2023/12/28 10:26:33;;;;;;;0.20;0.20;;;;;;;13.38;92.88;75249.63;6183729;23;20032;-82
2023/12/28 10:29:01;;;;;;;0.20;0.20;;;;;;;13.25;93.58;75236.84;6183941;23;20017;-81
2023/12/28 10:31:27;;;;;;;0.20;0.20;;;;;;;13.23;93.80;75229.50;6183868;23;20012;-82
2023/12/28 10:33:52;;;;;;;0.20;0.20;;;;;;;13.17;94.33;75224.47;6158039;23;20016;-80
2023/12/28 10:36:19;;;;;;;0.20;0.20;;;;;;;13.34;95.09;75245.44;6183269;23;20612;-76
2023/12/28 10:38:46;;;;;;;0.20;0.20;;;;;;;13.40;94.95;75252.03;6182683;23;20457;-77
2023/12/28 10:41:14;;;;;;;0.20;0.20;;;;;;;13.43;95.11;75255.63;6183005;23;20004;-76
2023/12/28 10:44:02;;;;;;;0.20;0.20;;;;;;;13.51;95.12;75267.97;6183473;23;20084;-76
2023/12/28 10:46:31;;;;;;;0.20;0.20;;;;;;;13.56;94.90;75270.56;6183080;23;20484;-76
2023/12/28 10:49:10;;;;;;;0.20;0.20;;;;;;;13.52;94.95;75266.38;6183181;23;20005;-77
2023/12/28 10:51:40;;;;;;;0.20;0.20;;;;;;;13.40;94.85;75245.88;6183902;23;20341;-77
2023/12/28 10:54:38;;;;;;;0.20;0.20;;;;;;;13.60;94.90;75270.41;6183273;23;20005;-77
2023/12/28 10:57:10;;;;;;;0.20;0.20;;;;;;;13.48;94.89;75261.59;6157821;23;20016;-84
2023/12/28 10:59:53;;;;;;;0.20;0.20;;;;;;;13.36;94.77;75247.81;6157375;23;20084;-83
2023/12/28 11:02:24;;;;;;;0.20;0.20;;;;;;;13.28;95.43;75232.09;6183438;23;20430;-83
2023/12/28 11:04:52;;;;;;;0.20;0.20;;;;;;;13.21;95.94;75232.03;6179674;23;20398;-84
2023/12/28 11:07:19;;;;;;;0.20;0.20;;;;;;;13.37;94.59;75242.88;6183169;23;20004;-83
2023/12/28 11:10:16;;;;;;;0.20;0.20;;;;;;;13.31;95.79;75241.25;6157402;23;20005;-86
2023/12/28 11:12:43;;;;;;;0.20;0.20;;;;;;;13.23;95.52;75229.50;6183104;23;20016;-83
2023/12/28 11:15:11;;;;;;;0.20;0.20;;;;;;;13.14;95.06;75218.69;6156912;23;20013;-82
2023/12/28 11:17:39;;;;;;;0.20;0.20;;;;;;;12.99;94.93;75204.13;6182381;23;20449;-83
2023/12/28 11:20:06;;;;;;;0.20;0.20;;;;;;;13.13;97.20;75219.69;6184485;23;20056;-83
2023/12/28 11:22:34;;;;;;;0.20;0.20;;;;;;;12.93;97.18;75196.94;6159996;23;20088;-82
2023/12/28 11:25:00;;;;;;;0.20;0.20;;;;;;;13.06;98.50;75209.72;6184572;23;20009;-81
2023/12/28 11:27:32;;;;;;;0.20;0.20;;;;;;;13.05;98.13;75211.31;6158262;23;20040;-81
2023/12/28 11:29:58;;;;;;;0.20;0.20;;;;;;;12.98;98.60;75202.91;6158687;23;20090;-82